sensor_id;sensor_type;location;lat;lon;timestamp;P1;durP1;ratioP1;P2;durP2;ratioP2
78549;SDS011;68091;52.130;5.570;2023-04-24T00:00:37;2.65;;;1.50;;
78549;SDS011;68091;52.130;5.570;2023-04-24T00:03:05;2.15;;;1.70;;
78549;SDS011;68091;52.130;5.570;2023-04-24T00:05:32;5.35;;;2.20;;
78549;SDS011;68091;52.130;5.570;2023-04-24T00:07:58;3.67;;;2.50;;
78549;SDS011;68091;52.130;5.570;2023-04-24T00:10:25;5.70;;;2.70;;
78549;SDS011;68091;52.130;5.570;2023-04-24T00:12:50;4.03;;;3.25;;
78549;SDS011;68091;52.130;5.570;2023-04-24T00:15:16;6.47;;;3.95;;
78549;SDS011;68091;52.130;5.570;2023-04-24T00:17:42;5.60;;;4.50;;
78549;SDS011;68091;52.130;5.570;2023-04-24T00:20:08;8.23;;;5.20;;
78549;SDS011;68091;52.130;5.570;2023-04-24T00:22:35;6.68;;;5.32;;
78549;SDS011;68091;52.130;5.570;2023-04-24T00:25:01;7.35;;;5.18;;
78549;SDS011;68091;52.130;5.570;2023-04-24T00:27:26;6.80;;;6.10;;
78549;SDS011;68091;52.130;5.570;2023-04-24T00:29:52;7.50;;;5.80;;
78549;SDS011;68091;52.130;5.570;2023-04-24T00:32:18;12.57;;;6.95;;
78549;SDS011;68091;52.130;5.570;2023-04-24T00:34:44;6.40;;;5.55;;
78549;SDS011;68091;52.130;5.570;2023-04-24T00:37:10;7.15;;;5.75;;
78549;SDS011;68091;52.130;5.570;2023-04-24T00:39:36;7.13;;;5.72;;
78549;SDS011;68091;52.130;5.570;2023-04-24T00:42:02;7.65;;;6.05;;
78549;SDS011;68091;52.130;5.570;2023-04-24T00:44:30;6.65;;;5.82;;
78549;SDS011;68091;52.130;5.570;2023-04-24T00:46:57;8.18;;;5.68;;
78549;SDS011;68091;52.130;5.570;2023-04-24T00:49:24;6.28;;;5.68;;
78549;SDS011;68091;52.130;5.570;2023-04-24T00:51:50;7.32;;;5.80;;
78549;SDS011;68091;52.130;5.570;2023-04-24T00:54:16;6.10;;;5.38;;
78549;SDS011;68091;52.130;5.570;2023-04-24T00:56:43;7.90;;;5.75;;
78549;SDS011;68091;52.130;5.570;2023-04-24T00:59:10;7.47;;;5.72;;
78549;SDS011;68091;52.130;5.570;2023-04-24T01:01:37;8.93;;;5.85;;
78549;SDS011;68091;52.130;5.570;2023-04-24T01:04:07;6.75;;;6.03;;
78549;SDS011;68091;52.130;5.570;2023-04-24T01:06:35;9.00;;;6.20;;
78549;SDS011;68091;52.130;5.570;2023-04-24T01:09:06;6.72;;;5.38;;
78549;SDS011;68091;52.130;5.570;2023-04-24T01:11:36;9.88;;;6.70;;
78549;SDS011;68091;52.130;5.570;2023-04-24T01:14:02;10.00;;;7.15;;
78549;SDS011;68091;52.130;5.570;2023-04-24T01:16:28;10.05;;;7.35;;
78549;SDS011;68091;52.130;5.570;2023-04-24T01:18:54;9.60;;;7.40;;
78549;SDS011;68091;52.130;5.570;2023-04-24T01:21:20;8.98;;;7.20;;
78549;SDS011;68091;52.130;5.570;2023-04-24T01:23:48;12.13;;;7.90;;
78549;SDS011;68091;52.130;5.570;2023-04-24T01:26:15;10.70;;;8.05;;
78549;SDS011;68091;52.130;5.570;2023-04-24T01:28:42;9.32;;;7.85;;
78549;SDS011;68091;52.130;5.570;2023-04-24T01:31:08;9.85;;;8.32;;
78549;SDS011;68091;52.130;5.570;2023-04-24T01:33:34;11.40;;;8.43;;
78549;SDS011;68091;52.130;5.570;2023-04-24T01:36:00;10.52;;;8.30;;
78549;SDS011;68091;52.130;5.570;2023-04-24T01:38:26;9.73;;;8.68;;
78549;SDS011;68091;52.130;5.570;2023-04-24T01:40:52;13.05;;;9.60;;
78549;SDS011;68091;52.130;5.570;2023-04-24T01:43:18;10.63;;;9.68;;
78549;SDS011;68091;52.130;5.570;2023-04-24T01:45:44;11.20;;;9.90;;
78549;SDS011;68091;52.130;5.570;2023-04-24T01:48:11;13.48;;;10.05;;
78549;SDS011;68091;52.130;5.570;2023-04-24T01:50:40;12.30;;;10.80;;
78549;SDS011;68091;52.130;5.570;2023-04-24T01:53:06;11.55;;;10.35;;
78549;SDS011;68091;52.130;5.570;2023-04-24T01:55:32;14.40;;;11.10;;
78549;SDS011;68091;52.130;5.570;2023-04-24T01:57:58;14.98;;;11.68;;
78549;SDS011;68091;52.130;5.570;2023-04-24T02:00:25;13.65;;;11.30;;
78549;SDS011;68091;52.130;5.570;2023-04-24T02:02:51;11.90;;;10.70;;
78549;SDS011;68091;52.130;5.570;2023-04-24T02:05:17;14.02;;;11.43;;
78549;SDS011;68091;52.130;5.570;2023-04-24T02:07:46;12.35;;;10.73;;
78549;SDS011;68091;52.130;5.570;2023-04-24T02:10:12;11.82;;;9.68;;
78549;SDS011;68091;52.130;5.570;2023-04-24T02:12:37;10.70;;;9.18;;
78549;SDS011;68091;52.130;5.570;2023-04-24T02:15:03;9.68;;;8.55;;
78549;SDS011;68091;52.130;5.570;2023-04-24T02:17:30;9.25;;;7.20;;
78549;SDS011;68091;52.130;5.570;2023-04-24T02:19:56;6.35;;;5.28;;
78549;SDS011;68091;52.130;5.570;2023-04-24T02:22:22;4.90;;;4.47;;
78549;SDS011;68091;52.130;5.570;2023-04-24T02:24:47;5.80;;;4.03;;
78549;SDS011;68091;52.130;5.570;2023-04-24T02:27:13;5.72;;;5.20;;
78549;SDS011;68091;52.130;5.570;2023-04-24T02:29:40;6.82;;;6.22;;
78549;SDS011;68091;52.130;5.570;2023-04-24T02:32:08;8.85;;;7.93;;
78549;SDS011;68091;52.130;5.570;2023-04-24T02:34:37;8.60;;;7.65;;
78549;SDS011;68091;52.130;5.570;2023-04-24T02:37:03;9.50;;;8.60;;
78549;SDS011;68091;52.130;5.570;2023-04-24T02:39:32;12.18;;;8.02;;
78549;SDS011;68091;52.130;5.570;2023-04-24T02:41:57;8.18;;;7.43;;
78549;SDS011;68091;52.130;5.570;2023-04-24T02:44:23;8.30;;;7.50;;
78549;SDS011;68091;52.130;5.570;2023-04-24T02:46:49;8.77;;;7.57;;
78549;SDS011;68091;52.130;5.570;2023-04-24T02:49:15;8.70;;;7.40;;
78549;SDS011;68091;52.130;5.570;2023-04-24T02:51:40;9.88;;;8.88;;
78549;SDS011;68091;52.130;5.570;2023-04-24T02:54:09;9.68;;;8.63;;
78549;SDS011;68091;52.130;5.570;2023-04-24T02:56:36;11.90;;;9.02;;
78549;SDS011;68091;52.130;5.570;2023-04-24T02:59:01;10.02;;;8.88;;
78549;SDS011;68091;52.130;5.570;2023-04-24T03:01:27;10.20;;;9.02;;
78549;SDS011;68091;52.130;5.570;2023-04-24T03:03:53;9.85;;;8.85;;
78549;SDS011;68091;52.130;5.570;2023-04-24T03:06:19;10.00;;;8.88;;
78549;SDS011;68091;52.130;5.570;2023-04-24T03:08:46;9.05;;;8.15;;
78549;SDS011;68091;52.130;5.570;2023-04-24T03:11:12;10.88;;;8.82;;
78549;SDS011;68091;52.130;5.570;2023-04-24T03:13:37;11.20;;;8.48;;
78549;SDS011;68091;52.130;5.570;2023-04-24T03:16:03;9.65;;;7.72;;
78549;SDS011;68091;52.130;5.570;2023-04-24T03:18:30;8.70;;;6.75;;
78549;SDS011;68091;52.130;5.570;2023-04-24T03:20:56;10.80;;;7.22;;
78549;SDS011;68091;52.130;5.570;2023-04-24T03:23:22;8.85;;;6.95;;
78549;SDS011;68091;52.130;5.570;2023-04-24T03:25:48;12.38;;;7.68;;
78549;SDS011;68091;52.130;5.570;2023-04-24T03:28:14;7.32;;;6.63;;
78549;SDS011;68091;52.130;5.570;2023-04-24T03:30:40;9.93;;;7.68;;
78549;SDS011;68091;52.130;5.570;2023-04-24T03:33:06;12.68;;;8.23;;
78549;SDS011;68091;52.130;5.570;2023-04-24T03:35:32;9.95;;;8.38;;
78549;SDS011;68091;52.130;5.570;2023-04-24T03:37:58;10.65;;;8.43;;
78549;SDS011;68091;52.130;5.570;2023-04-24T03:40:23;11.85;;;9.05;;
78549;SDS011;68091;52.130;5.570;2023-04-24T03:42:54;10.77;;;9.60;;
78549;SDS011;68091;52.130;5.570;2023-04-24T15:56:04;15.38;;;3.75;;
78549;SDS011;68091;52.130;5.570;2023-04-24T15:58:32;10.73;;;3.40;;
78549;SDS011;68091;52.130;5.570;2023-04-24T16:01:05;14.63;;;3.05;;
78549;SDS011;68091;52.130;5.570;2023-04-24T16:03:30;13.38;;;3.65;;
78549;SDS011;68091;52.130;5.570;2023-04-24T16:05:56;14.55;;;3.72;;
78549;SDS011;68091;52.130;5.570;2023-04-24T16:08:22;18.33;;;3.95;;
78549;SDS011;68091;52.130;5.570;2023-04-24T16:10:48;15.68;;;4.50;;
78549;SDS011;68091;52.130;5.570;2023-04-24T16:13:14;18.48;;;4.00;;
78549;SDS011;68091;52.130;5.570;2023-04-24T16:15:42;11.52;;;3.55;;
78549;SDS011;68091;52.130;5.570;2023-04-24T16:18:09;12.48;;;3.47;;
78549;SDS011;68091;52.130;5.570;2023-04-24T16:20:35;12.15;;;3.28;;
78549;SDS011;68091;52.130;5.570;2023-04-24T16:23:01;13.05;;;3.58;;
78549;SDS011;68091;52.130;5.570;2023-04-24T16:25:27;12.52;;;3.47;;
78549;SDS011;68091;52.130;5.570;2023-04-24T16:27:56;14.20;;;4.28;;
78549;SDS011;68091;52.130;5.570;2023-04-24T16:30:25;18.50;;;4.40;;
78549;SDS011;68091;52.130;5.570;2023-04-24T16:35:50;15.77;;;3.75;;
78549;SDS011;68091;52.130;5.570;2023-04-24T16:38:16;14.38;;;4.38;;
78549;SDS011;68091;52.130;5.570;2023-04-24T16:40:42;14.88;;;4.45;;
78549;SDS011;68091;52.130;5.570;2023-04-24T16:43:08;15.38;;;3.72;;
78549;SDS011;68091;52.130;5.570;2023-04-24T16:45:34;17.98;;;4.07;;
78549;SDS011;68091;52.130;5.570;2023-04-24T16:48:00;16.30;;;4.72;;
78549;SDS011;68091;52.130;5.570;2023-04-24T16:50:26;14.02;;;4.03;;
78549;SDS011;68091;52.130;5.570;2023-04-24T16:52:54;22.45;;;5.47;;
78549;SDS011;68091;52.130;5.570;2023-04-24T16:55:20;16.98;;;4.55;;
78549;SDS011;68091;52.130;5.570;2023-04-24T16:57:46;21.00;;;5.40;;
78549;SDS011;68091;52.130;5.570;2023-04-24T17:00:15;19.80;;;5.05;;
78549;SDS011;68091;52.130;5.570;2023-04-24T17:02:41;16.50;;;4.05;;
78549;SDS011;68091;52.130;5.570;2023-04-24T17:05:14;15.93;;;3.80;;
78549;SDS011;68091;52.130;5.570;2023-04-24T17:07:41;12.32;;;3.95;;
78549;SDS011;68091;52.130;5.570;2023-04-24T17:10:07;23.63;;;5.05;;
78549;SDS011;68091;52.130;5.570;2023-04-24T17:12:33;16.02;;;4.90;;
78549;SDS011;68091;52.130;5.570;2023-04-24T17:14:59;23.00;;;5.32;;
78549;SDS011;68091;52.130;5.570;2023-04-24T17:17:34;26.27;;;5.60;;
78549;SDS011;68091;52.130;5.570;2023-04-24T17:20:00;19.17;;;4.63;;
78549;SDS011;68091;52.130;5.570;2023-04-24T17:22:29;17.63;;;4.25;;
78549;SDS011;68091;52.130;5.570;2023-04-24T17:24:55;20.35;;;4.88;;
78549;SDS011;68091;52.130;5.570;2023-04-24T17:27:21;30.50;;;5.13;;
78549;SDS011;68091;52.130;5.570;2023-04-24T17:29:49;19.38;;;4.32;;
78549;SDS011;68091;52.130;5.570;2023-04-24T17:32:15;24.45;;;5.03;;
78549;SDS011;68091;52.130;5.570;2023-04-24T17:34:44;25.27;;;5.53;;
78549;SDS011;68091;52.130;5.570;2023-04-24T17:37:19;19.05;;;5.00;;
78549;SDS011;68091;52.130;5.570;2023-04-24T17:39:47;24.52;;;5.45;;
78549;SDS011;68091;52.130;5.570;2023-04-24T17:42:16;31.42;;;5.80;;
78549;SDS011;68091;52.130;5.570;2023-04-24T17:44:42;18.27;;;5.22;;
78549;SDS011;68091;52.130;5.570;2023-04-24T17:47:08;21.85;;;4.93;;
78549;SDS011;68091;52.130;5.570;2023-04-24T17:49:33;22.55;;;5.25;;
78549;SDS011;68091;52.130;5.570;2023-04-24T17:52:01;24.05;;;5.32;;
78549;SDS011;68091;52.130;5.570;2023-04-24T17:54:27;23.40;;;4.80;;
78549;SDS011;68091;52.130;5.570;2023-04-24T17:56:52;22.85;;;5.07;;
78549;SDS011;68091;52.130;5.570;2023-04-24T17:59:18;22.73;;;5.60;;
78549;SDS011;68091;52.130;5.570;2023-04-24T18:01:44;21.77;;;4.57;;
78549;SDS011;68091;52.130;5.570;2023-04-24T18:04:13;16.33;;;4.60;;
78549;SDS011;68091;52.130;5.570;2023-04-24T18:06:38;18.27;;;4.40;;
78549;SDS011;68091;52.130;5.570;2023-04-24T18:09:04;24.60;;;5.80;;
78549;SDS011;68091;52.130;5.570;2023-04-24T18:11:30;24.30;;;5.38;;
78549;SDS011;68091;52.130;5.570;2023-04-24T18:13:57;23.48;;;4.70;;
78549;SDS011;68091;52.130;5.570;2023-04-24T18:16:23;23.02;;;5.00;;
78549;SDS011;68091;52.130;5.570;2023-04-24T18:18:49;25.70;;;4.65;;
78549;SDS011;68091;52.130;5.570;2023-04-24T18:21:14;15.52;;;4.47;;
78549;SDS011;68091;52.130;5.570;2023-04-24T18:23:40;24.00;;;4.75;;
78549;SDS011;68091;52.130;5.570;2023-04-24T18:26:06;19.88;;;5.10;;
78549;SDS011;68091;52.130;5.570;2023-04-24T18:28:32;17.48;;;4.50;;
78549;SDS011;68091;52.130;5.570;2023-04-24T18:30:59;20.17;;;4.32;;
78549;SDS011;68091;52.130;5.570;2023-04-24T18:33:26;20.75;;;5.10;;
78549;SDS011;68091;52.130;5.570;2023-04-24T18:35:52;29.25;;;5.22;;
78549;SDS011;68091;52.130;5.570;2023-04-24T18:38:18;24.30;;;5.68;;
78549;SDS011;68091;52.130;5.570;2023-04-24T18:40:44;25.50;;;5.22;;
78549;SDS011;68091;52.130;5.570;2023-04-24T18:43:10;19.40;;;5.18;;
78549;SDS011;68091;52.130;5.570;2023-04-24T18:45:36;25.50;;;5.00;;
78549;SDS011;68091;52.130;5.570;2023-04-24T18:48:02;19.95;;;4.40;;
78549;SDS011;68091;52.130;5.570;2023-04-24T18:50:27;18.77;;;4.38;;
78549;SDS011;68091;52.130;5.570;2023-04-24T18:52:59;18.88;;;4.20;;
78549;SDS011;68091;52.130;5.570;2023-04-24T18:55:25;32.88;;;15.55;;
78549;SDS011;68091;52.130;5.570;2023-04-24T18:57:51;28.60;;;7.18;;
78549;SDS011;68091;52.130;5.570;2023-04-24T19:00:17;23.63;;;7.72;;
78549;SDS011;68091;52.130;5.570;2023-04-24T19:02:45;16.88;;;5.85;;
78549;SDS011;68091;52.130;5.570;2023-04-24T19:05:14;18.67;;;4.13;;
78549;SDS011;68091;52.130;5.570;2023-04-24T19:07:40;15.30;;;3.97;;
78549;SDS011;68091;52.130;5.570;2023-04-24T19:10:06;26.20;;;4.88;;
78549;SDS011;68091;52.130;5.570;2023-04-24T19:12:33;19.40;;;4.57;;
78549;SDS011;68091;52.130;5.570;2023-04-24T19:14:59;16.98;;;3.65;;
78549;SDS011;68091;52.130;5.570;2023-04-24T19:17:25;34.53;;;12.52;;
78549;SDS011;68091;52.130;5.570;2023-04-24T19:19:51;24.38;;;9.95;;
78549;SDS011;68091;52.130;5.570;2023-04-24T19:22:17;19.08;;;4.50;;
78549;SDS011;68091;52.130;5.570;2023-04-24T19:24:44;19.00;;;4.63;;
78549;SDS011;68091;52.130;5.570;2023-04-24T19:27:10;22.35;;;4.25;;
78549;SDS011;68091;52.130;5.570;2023-04-24T19:29:36;21.52;;;4.25;;
78549;SDS011;68091;52.130;5.570;2023-04-24T19:32:02;14.00;;;3.63;;
78549;SDS011;68091;52.130;5.570;2023-04-24T19:34:28;21.35;;;7.43;;
78549;SDS011;68091;52.130;5.570;2023-04-24T19:36:56;16.27;;;4.85;;
78549;SDS011;68091;52.130;5.570;2023-04-24T19:39:21;32.58;;;11.82;;
78549;SDS011;68091;52.130;5.570;2023-04-24T19:41:47;16.48;;;5.20;;
78549;SDS011;68091;52.130;5.570;2023-04-24T19:44:13;12.80;;;3.08;;
78549;SDS011;68091;52.130;5.570;2023-04-24T19:46:41;11.18;;;3.25;;
78549;SDS011;68091;52.130;5.570;2023-04-24T19:49:07;9.70;;;3.03;;
78549;SDS011;68091;52.130;5.570;2023-04-24T19:51:33;11.38;;;2.50;;
78549;SDS011;68091;52.130;5.570;2023-04-24T19:54:00;12.40;;;2.80;;
78549;SDS011;68091;52.130;5.570;2023-04-24T19:56:26;13.93;;;3.30;;
78549;SDS011;68091;52.130;5.570;2023-04-24T19:58:52;20.80;;;5.20;;
78549;SDS011;68091;52.130;5.570;2023-04-24T20:01:18;11.05;;;3.10;;
78549;SDS011;68091;52.130;5.570;2023-04-24T20:03:43;16.80;;;9.15;;
78549;SDS011;68091;52.130;5.570;2023-04-24T20:06:09;11.05;;;4.43;;
78549;SDS011;68091;52.130;5.570;2023-04-24T20:08:35;9.60;;;2.80;;
78549;SDS011;68091;52.130;5.570;2023-04-24T20:11:04;10.75;;;2.83;;
78549;SDS011;68091;52.130;5.570;2023-04-24T20:13:33;8.80;;;2.90;;
78549;SDS011;68091;52.130;5.570;2023-04-24T20:15:59;11.27;;;2.92;;
78549;SDS011;68091;52.130;5.570;2023-04-24T20:18:25;12.20;;;2.58;;
78549;SDS011;68091;52.130;5.570;2023-04-24T20:20:54;7.68;;;2.53;;
78549;SDS011;68091;52.130;5.570;2023-04-24T20:23:23;11.48;;;2.78;;
78549;SDS011;68091;52.130;5.570;2023-04-24T20:25:49;13.00;;;2.92;;
78549;SDS011;68091;52.130;5.570;2023-04-24T20:28:22;17.38;;;2.65;;
78549;SDS011;68091;52.130;5.570;2023-04-24T20:30:49;10.30;;;3.92;;
78549;SDS011;68091;52.130;5.570;2023-04-24T20:33:15;13.65;;;5.47;;
78549;SDS011;68091;52.130;5.570;2023-04-24T20:35:41;12.57;;;3.75;;
78549;SDS011;68091;52.130;5.570;2023-04-24T20:38:06;8.52;;;3.17;;
78549;SDS011;68091;52.130;5.570;2023-04-24T20:40:35;10.15;;;2.30;;
78549;SDS011;68091;52.130;5.570;2023-04-24T20:43:01;7.35;;;2.75;;
78549;SDS011;68091;52.130;5.570;2023-04-24T20:45:28;6.20;;;2.00;;
78549;SDS011;68091;52.130;5.570;2023-04-24T20:47:54;7.72;;;2.00;;
78549;SDS011;68091;52.130;5.570;2023-04-24T20:50:20;5.88;;;1.85;;
78549;SDS011;68091;52.130;5.570;2023-04-24T20:52:46;4.38;;;1.95;;
78549;SDS011;68091;52.130;5.570;2023-04-24T20:55:12;10.30;;;1.95;;
78549;SDS011;68091;52.130;5.570;2023-04-24T20:57:39;8.50;;;2.40;;
78549;SDS011;68091;52.130;5.570;2023-04-24T21:00:05;11.73;;;2.35;;
78549;SDS011;68091;52.130;5.570;2023-04-24T21:02:32;9.48;;;2.58;;
78549;SDS011;68091;52.130;5.570;2023-04-24T21:05:01;5.65;;;2.25;;
78549;SDS011;68091;52.130;5.570;2023-04-24T21:07:28;11.15;;;4.93;;
78549;SDS011;68091;52.130;5.570;2023-04-24T21:10:06;10.63;;;4.47;;
78549;SDS011;68091;52.130;5.570;2023-04-24T21:12:55;15.27;;;4.55;;
78549;SDS011;68091;52.130;5.570;2023-04-24T21:15:21;9.10;;;2.90;;
78549;SDS011;68091;52.130;5.570;2023-04-24T21:17:47;6.57;;;2.53;;
78549;SDS011;68091;52.130;5.570;2023-04-24T21:20:16;6.45;;;2.25;;
78549;SDS011;68091;52.130;5.570;2023-04-24T21:22:41;8.38;;;2.50;;
78549;SDS011;68091;52.130;5.570;2023-04-24T21:25:07;8.00;;;2.60;;
78549;SDS011;68091;52.130;5.570;2023-04-24T21:27:34;6.88;;;2.25;;
78549;SDS011;68091;52.130;5.570;2023-04-24T21:30:00;38.33;;;22.13;;
78549;SDS011;68091;52.130;5.570;2023-04-24T21:32:26;14.30;;;6.55;;
78549;SDS011;68091;52.130;5.570;2023-04-24T21:34:52;8.98;;;4.13;;
78549;SDS011;68091;52.130;5.570;2023-04-24T21:37:17;13.50;;;5.30;;
78549;SDS011;68091;52.130;5.570;2023-04-24T21:39:43;8.90;;;2.58;;
78549;SDS011;68091;52.130;5.570;2023-04-24T21:42:09;7.90;;;2.25;;
78549;SDS011;68091;52.130;5.570;2023-04-24T21:44:35;8.30;;;2.50;;
78549;SDS011;68091;52.130;5.570;2023-04-24T21:47:01;10.68;;;3.15;;
78549;SDS011;68091;52.130;5.570;2023-04-24T21:49:27;11.23;;;2.88;;
78549;SDS011;68091;52.130;5.570;2023-04-24T21:51:52;7.28;;;2.70;;
78549;SDS011;68091;52.130;5.570;2023-04-24T21:54:21;9.52;;;4.35;;
78549;SDS011;68091;52.130;5.570;2023-04-24T21:56:50;13.43;;;3.05;;
78549;SDS011;68091;52.130;5.570;2023-04-24T21:59:16;7.97;;;2.92;;
78549;SDS011;68091;52.130;5.570;2023-04-24T22:01:42;6.97;;;2.08;;
78549;SDS011;68091;52.130;5.570;2023-04-24T22:04:08;5.20;;;1.70;;
78549;SDS011;68091;52.130;5.570;2023-04-24T22:09:45;22.77;;;13.63;;
78549;SDS011;68091;52.130;5.570;2023-04-24T22:12:11;10.68;;;2.78;;
78549;SDS011;68091;52.130;5.570;2023-04-24T22:14:37;7.40;;;2.55;;
78549;SDS011;68091;52.130;5.570;2023-04-24T22:17:03;6.30;;;2.15;;
78549;SDS011;68091;52.130;5.570;2023-04-24T22:19:29;9.77;;;3.15;;
78549;SDS011;68091;52.130;5.570;2023-04-24T22:22:07;10.45;;;2.85;;
78549;SDS011;68091;52.130;5.570;2023-04-24T22:31:28;11.55;;;2.92;;
78549;SDS011;68091;52.130;5.570;2023-04-24T22:34:25;15.55;;;3.53;;
78549;SDS011;68091;52.130;5.570;2023-04-24T22:37:33;10.23;;;2.97;;
78549;SDS011;68091;52.130;5.570;2023-04-24T22:46:45;12.55;;;3.22;;
78549;SDS011;68091;52.130;5.570;2023-04-24T22:49:43;17.63;;;4.45;;
78549;SDS011;68091;52.130;5.570;2023-04-24T22:59:07;19.58;;;4.57;;
78549;SDS011;68091;52.130;5.570;2023-04-24T23:04:34;27.27;;;6.00;;
78549;SDS011;68091;52.130;5.570;2023-04-24T23:10:28;28.45;;;5.38;;
78549;SDS011;68091;52.130;5.570;2023-04-24T23:13:14;23.55;;;4.63;;
78549;SDS011;68091;52.130;5.570;2023-04-24T23:15:40;33.42;;;6.20;;
78549;SDS011;68091;52.130;5.570;2023-04-24T23:18:06;31.92;;;5.63;;
78549;SDS011;68091;52.130;5.570;2023-04-24T23:20:32;25.10;;;5.68;;
78549;SDS011;68091;52.130;5.570;2023-04-24T23:22:59;26.90;;;5.72;;
78549;SDS011;68091;52.130;5.570;2023-04-24T23:25:25;27.85;;;5.95;;
78549;SDS011;68091;52.130;5.570;2023-04-24T23:27:50;31.60;;;6.32;;
78549;SDS011;68091;52.130;5.570;2023-04-24T23:33:36;29.13;;;5.82;;
78549;SDS011;68091;52.130;5.570;2023-04-24T23:36:26;25.63;;;6.53;;
78549;SDS011;68091;52.130;5.570;2023-04-24T23:39:00;36.13;;;7.50;;
78549;SDS011;68091;52.130;5.570;2023-04-24T23:42:16;24.45;;;5.35;;
78549;SDS011;68091;52.130;5.570;2023-04-24T23:44:40;28.20;;;5.95;;
78549;SDS011;68091;52.130;5.570;2023-04-24T23:51:09;31.52;;;6.95;;
78549;SDS011;68091;52.130;5.570;2023-04-24T23:53:51;32.33;;;6.47;;
